sensor_id;sensor_type;location;lat;lon;timestamp;P1;durP1;ratioP1;P2;durP2;ratioP2
16967;SDS011;64862;54.398;10.126;2023-03-31T00:04:41;58.85;;;8.65;;
16967;SDS011;64862;54.398;10.126;2023-03-31T00:14:45;60.50;;;8.65;;
16967;SDS011;64862;54.398;10.126;2023-03-31T00:24:49;62.22;;;9.40;;
16967;SDS011;64862;54.398;10.126;2023-03-31T00:34:52;55.35;;;10.13;;
16967;SDS011;64862;54.398;10.126;2023-03-31T00:55:31;63.33;;;10.70;;
16967;SDS011;64862;54.398;10.126;2023-03-31T01:05:38;50.17;;;10.07;;
16967;SDS011;64862;54.398;10.126;2023-03-31T01:15:45;44.95;;;10.30;;
16967;SDS011;64862;54.398;10.126;2023-03-31T01:26:12;52.92;;;11.68;;
16967;SDS011;64862;54.398;10.126;2023-03-31T01:36:49;37.17;;;9.30;;
16967;SDS011;64862;54.398;10.126;2023-03-31T01:47:18;41.47;;;9.50;;
16967;SDS011;64862;54.398;10.126;2023-03-31T01:57:29;44.80;;;10.23;;
16967;SDS011;64862;54.398;10.126;2023-03-31T02:07:36;48.60;;;10.10;;
16967;SDS011;64862;54.398;10.126;2023-03-31T02:17:42;37.27;;;8.70;;
16967;SDS011;64862;54.398;10.126;2023-03-31T02:27:52;44.90;;;8.67;;
16967;SDS011;64862;54.398;10.126;2023-03-31T02:37:56;42.78;;;9.52;;
16967;SDS011;64862;54.398;10.126;2023-03-31T02:48:00;42.42;;;8.27;;
16967;SDS011;64862;54.398;10.126;2023-03-31T02:58:09;41.50;;;8.15;;
16967;SDS011;64862;54.398;10.126;2023-03-31T03:08:31;49.85;;;8.30;;
16967;SDS011;64862;54.398;10.126;2023-03-31T03:18:51;37.03;;;7.88;;
16967;SDS011;64862;54.398;10.126;2023-03-31T03:28:58;41.28;;;7.55;;
16967;SDS011;64862;54.398;10.126;2023-03-31T03:39:00;44.90;;;8.13;;
16967;SDS011;64862;54.398;10.126;2023-03-31T03:49:04;41.13;;;9.27;;
16967;SDS011;64862;54.398;10.126;2023-03-31T03:59:06;36.83;;;7.82;;
16967;SDS011;64862;54.398;10.126;2023-03-31T04:09:10;48.08;;;8.90;;
16967;SDS011;64862;54.398;10.126;2023-03-31T04:19:12;38.63;;;8.10;;
16967;SDS011;64862;54.398;10.126;2023-03-31T04:29:18;43.47;;;8.68;;
16967;SDS011;64862;54.398;10.126;2023-03-31T04:39:21;43.90;;;9.52;;
16967;SDS011;64862;54.398;10.126;2023-03-31T04:49:27;47.13;;;10.02;;
16967;SDS011;64862;54.398;10.126;2023-03-31T04:59:32;44.08;;;10.48;;
16967;SDS011;64862;54.398;10.126;2023-03-31T05:09:36;38.72;;;9.05;;
16967;SDS011;64862;54.398;10.126;2023-03-31T05:19:38;36.70;;;7.28;;
16967;SDS011;64862;54.398;10.126;2023-03-31T05:29:42;36.22;;;6.53;;
16967;SDS011;64862;54.398;10.126;2023-03-31T05:39:44;32.03;;;6.03;;
16967;SDS011;64862;54.398;10.126;2023-03-31T05:49:49;35.72;;;6.35;;
16967;SDS011;64862;54.398;10.126;2023-03-31T05:59:51;34.53;;;6.75;;
16967;SDS011;64862;54.398;10.126;2023-03-31T06:09:55;45.47;;;7.15;;
16967;SDS011;64862;54.398;10.126;2023-03-31T06:20:00;45.25;;;6.43;;
16967;SDS011;64862;54.398;10.126;2023-03-31T06:30:07;39.65;;;5.78;;
16967;SDS011;64862;54.398;10.126;2023-03-31T06:40:11;33.33;;;5.28;;
16967;SDS011;64862;54.398;10.126;2023-03-31T06:50:15;33.40;;;5.68;;
16967;SDS011;64862;54.398;10.126;2023-03-31T07:00:17;37.10;;;5.30;;
16967;SDS011;64862;54.398;10.126;2023-03-31T07:10:21;33.28;;;5.43;;
16967;SDS011;64862;54.398;10.126;2023-03-31T07:20:24;37.88;;;5.70;;
16967;SDS011;64862;54.398;10.126;2023-03-31T07:30:28;33.08;;;5.53;;
16967;SDS011;64862;54.398;10.126;2023-03-31T07:40:30;33.80;;;6.80;;
16967;SDS011;64862;54.398;10.126;2023-03-31T07:50:34;28.85;;;5.88;;
16967;SDS011;64862;54.398;10.126;2023-03-31T08:00:39;29.53;;;6.10;;
16967;SDS011;64862;54.398;10.126;2023-03-31T08:10:43;22.85;;;5.85;;
16967;SDS011;64862;54.398;10.126;2023-03-31T08:20:45;28.25;;;6.00;;
16967;SDS011;64862;54.398;10.126;2023-03-31T08:30:50;30.33;;;7.00;;
16967;SDS011;64862;54.398;10.126;2023-03-31T08:40:57;26.33;;;6.38;;
16967;SDS011;64862;54.398;10.126;2023-03-31T08:51:02;27.57;;;5.73;;
16967;SDS011;64862;54.398;10.126;2023-03-31T09:01:14;25.15;;;5.38;;
16967;SDS011;64862;54.398;10.126;2023-03-31T09:11:26;24.30;;;5.88;;
16967;SDS011;64862;54.398;10.126;2023-03-31T09:21:36;24.90;;;5.75;;
16967;SDS011;64862;54.398;10.126;2023-03-31T09:31:45;20.08;;;6.13;;
16967;SDS011;64862;54.398;10.126;2023-03-31T09:41:49;24.48;;;6.97;;
16967;SDS011;64862;54.398;10.126;2023-03-31T09:51:59;25.13;;;6.03;;
16967;SDS011;64862;54.398;10.126;2023-03-31T10:02:19;22.65;;;5.80;;
16967;SDS011;64862;54.398;10.126;2023-03-31T10:12:49;22.70;;;6.78;;
16967;SDS011;64862;54.398;10.126;2023-03-31T10:22:52;26.63;;;6.85;;
16967;SDS011;64862;54.398;10.126;2023-03-31T10:32:56;24.02;;;7.55;;
16967;SDS011;64862;54.398;10.126;2023-03-31T10:43:00;21.05;;;7.93;;
16967;SDS011;64862;54.398;10.126;2023-03-31T10:53:10;24.83;;;8.40;;
16967;SDS011;64862;54.398;10.126;2023-03-31T11:13:32;14.27;;;5.78;;
16967;SDS011;64862;54.398;10.126;2023-03-31T11:23:39;11.88;;;4.28;;
16967;SDS011;64862;54.398;10.126;2023-03-31T11:33:50;10.00;;;2.70;;
16967;SDS011;64862;54.398;10.126;2023-03-31T11:44:01;8.20;;;2.70;;
16967;SDS011;64862;54.398;10.126;2023-03-31T11:54:07;8.32;;;3.50;;
16967;SDS011;64862;54.398;10.126;2023-03-31T12:04:22;8.35;;;2.95;;
16967;SDS011;64862;54.398;10.126;2023-03-31T12:14:32;9.35;;;2.80;;
16967;SDS011;64862;54.398;10.126;2023-03-31T12:24:38;12.38;;;6.20;;
16967;SDS011;64862;54.398;10.126;2023-03-31T12:34:43;9.48;;;5.10;;
16967;SDS011;64862;54.398;10.126;2023-03-31T12:44:50;10.10;;;3.45;;
16967;SDS011;64862;54.398;10.126;2023-03-31T12:55:09;5.25;;;2.20;;
16967;SDS011;64862;54.398;10.126;2023-03-31T13:05:45;5.72;;;2.45;;
16967;SDS011;64862;54.398;10.126;2023-03-31T13:15:50;4.22;;;1.63;;
16967;SDS011;64862;54.398;10.126;2023-03-31T13:25:54;2.60;;;0.85;;
16967;SDS011;64862;54.398;10.126;2023-03-31T13:57:28;3.65;;;2.00;;
16967;SDS011;64862;54.398;10.126;2023-03-31T14:07:49;4.55;;;1.98;;
16967;SDS011;64862;54.398;10.126;2023-03-31T14:17:56;4.13;;;1.83;;
16967;SDS011;64862;54.398;10.126;2023-03-31T14:28:07;3.15;;;1.70;;
16967;SDS011;64862;54.398;10.126;2023-03-31T14:38:20;6.00;;;2.53;;
16967;SDS011;64862;54.398;10.126;2023-03-31T14:48:25;16.58;;;7.93;;
16967;SDS011;64862;54.398;10.126;2023-03-31T14:58:28;5.70;;;2.83;;
16967;SDS011;64862;54.398;10.126;2023-03-31T15:08:35;5.55;;;2.95;;
16967;SDS011;64862;54.398;10.126;2023-03-31T15:18:38;3.67;;;2.17;;
16967;SDS011;64862;54.398;10.126;2023-03-31T15:28:43;4.18;;;2.00;;
16967;SDS011;64862;54.398;10.126;2023-03-31T15:38:53;5.65;;;2.50;;
16967;SDS011;64862;54.398;10.126;2023-03-31T15:48:59;7.68;;;3.58;;
16967;SDS011;64862;54.398;10.126;2023-03-31T15:59:03;5.75;;;3.20;;
16967;SDS011;64862;54.398;10.126;2023-03-31T16:09:08;4.82;;;1.90;;
16967;SDS011;64862;54.398;10.126;2023-03-31T16:19:13;4.22;;;1.77;;
16967;SDS011;64862;54.398;10.126;2023-03-31T16:29:23;4.45;;;2.20;;
16967;SDS011;64862;54.398;10.126;2023-03-31T16:39:26;4.22;;;2.13;;
16967;SDS011;64862;54.398;10.126;2023-03-31T16:49:30;7.32;;;2.78;;
16967;SDS011;64862;54.398;10.126;2023-03-31T16:59:32;4.28;;;2.33;;
16967;SDS011;64862;54.398;10.126;2023-03-31T17:09:36;5.60;;;2.40;;
16967;SDS011;64862;54.398;10.126;2023-03-31T17:19:38;5.10;;;2.25;;
16967;SDS011;64862;54.398;10.126;2023-03-31T17:29:42;6.03;;;2.38;;
16967;SDS011;64862;54.398;10.126;2023-03-31T17:39:44;3.35;;;2.00;;
16967;SDS011;64862;54.398;10.126;2023-03-31T17:49:48;4.10;;;2.03;;
16967;SDS011;64862;54.398;10.126;2023-03-31T17:59:51;9.00;;;5.03;;
16967;SDS011;64862;54.398;10.126;2023-03-31T18:09:54;8.23;;;5.18;;
16967;SDS011;64862;54.398;10.126;2023-03-31T18:19:57;8.40;;;5.13;;
16967;SDS011;64862;54.398;10.126;2023-03-31T18:30:00;7.25;;;4.30;;
16967;SDS011;64862;54.398;10.126;2023-03-31T18:40:03;9.50;;;4.30;;
16967;SDS011;64862;54.398;10.126;2023-03-31T18:50:09;7.72;;;4.45;;
16967;SDS011;64862;54.398;10.126;2023-03-31T19:00:13;7.45;;;3.88;;
16967;SDS011;64862;54.398;10.126;2023-03-31T19:10:18;8.73;;;4.32;;
16967;SDS011;64862;54.398;10.126;2023-03-31T19:20:20;12.13;;;6.97;;
16967;SDS011;64862;54.398;10.126;2023-03-31T19:30:25;7.82;;;4.22;;
16967;SDS011;64862;54.398;10.126;2023-03-31T19:40:27;9.10;;;5.28;;
16967;SDS011;64862;54.398;10.126;2023-03-31T19:50:31;15.52;;;7.78;;
16967;SDS011;64862;54.398;10.126;2023-03-31T20:00:33;13.60;;;9.27;;
16967;SDS011;64862;54.398;10.126;2023-03-31T20:10:37;16.90;;;10.63;;
16967;SDS011;64862;54.398;10.126;2023-03-31T20:20:40;31.90;;;14.23;;
16967;SDS011;64862;54.398;10.126;2023-03-31T20:30:43;23.92;;;13.18;;
16967;SDS011;64862;54.398;10.126;2023-03-31T20:40:45;21.17;;;13.07;;
16967;SDS011;64862;54.398;10.126;2023-03-31T20:50:50;23.10;;;12.13;;
16967;SDS011;64862;54.398;10.126;2023-03-31T21:00:55;17.73;;;11.02;;
16967;SDS011;64862;54.398;10.126;2023-03-31T21:11:00;20.35;;;10.50;;
16967;SDS011;64862;54.398;10.126;2023-03-31T21:21:03;18.80;;;11.35;;
16967;SDS011;64862;54.398;10.126;2023-03-31T21:31:08;17.60;;;9.82;;
16967;SDS011;64862;54.398;10.126;2023-03-31T21:41:13;25.52;;;11.45;;
16967;SDS011;64862;54.398;10.126;2023-03-31T21:51:18;47.90;;;20.05;;
16967;SDS011;64862;54.398;10.126;2023-03-31T22:01:21;53.70;;;23.98;;
16967;SDS011;64862;54.398;10.126;2023-03-31T22:11:25;54.55;;;24.15;;
16967;SDS011;64862;54.398;10.126;2023-03-31T22:21:27;60.15;;;23.63;;
16967;SDS011;64862;54.398;10.126;2023-03-31T22:31:31;70.35;;;25.50;;
16967;SDS011;64862;54.398;10.126;2023-03-31T22:41:33;61.88;;;23.23;;
16967;SDS011;64862;54.398;10.126;2023-03-31T22:51:37;56.13;;;20.65;;
16967;SDS011;64862;54.398;10.126;2023-03-31T23:01:40;45.90;;;18.40;;
16967;SDS011;64862;54.398;10.126;2023-03-31T23:11:46;39.13;;;16.55;;
16967;SDS011;64862;54.398;10.126;2023-03-31T23:21:50;25.50;;;11.95;;
16967;SDS011;64862;54.398;10.126;2023-03-31T23:31:54;18.83;;;10.65;;
16967;SDS011;64862;54.398;10.126;2023-03-31T23:41:56;20.98;;;10.77;;
16967;SDS011;64862;54.398;10.126;2023-03-31T23:52:00;20.90;;;10.75;;
